createdAt,value
2022-09-03T00:01:28.620Z,5.70
2022-09-03T00:04:01.641Z,7.20
2022-09-03T00:06:42.858Z,6.90
2022-09-03T00:09:28.143Z,7.00
2022-09-03T00:12:28.509Z,7.60
2022-09-03T00:15:19.459Z,7.50
2022-09-03T00:18:04.979Z,8.20
2022-09-03T00:20:58.206Z,7.20
2022-09-03T00:23:29.900Z,7.70
2022-09-03T00:26:12.143Z,7.10
2022-09-03T00:32:10.126Z,6.60
2022-09-03T00:34:47.111Z,7.80
2022-09-03T00:37:15.783Z,7.70
2022-09-03T00:39:43.644Z,7.60
2022-09-03T00:42:44.482Z,7.20
2022-09-03T00:45:38.262Z,7.50
2022-09-03T00:48:56.275Z,8.50
2022-09-03T00:51:36.681Z,8.20
2022-09-03T00:54:13.768Z,7.50
2022-09-03T00:57:07.644Z,8.40
2022-09-03T01:00:06.448Z,9.70
2022-09-03T01:02:56.382Z,7.70
2022-09-03T01:06:01.785Z,7.80
2022-09-03T01:08:47.419Z,8.00
2022-09-03T01:11:54.949Z,8.30
2022-09-03T01:14:52.071Z,8.80
2022-09-03T01:17:22.117Z,8.50
2022-09-03T01:19:57.742Z,7.80
2022-09-03T01:22:49.441Z,7.50
2022-09-03T01:25:31.872Z,7.80
2022-09-03T01:28:32.972Z,7.60
2022-09-03T01:31:26.409Z,7.50
2022-09-03T01:34:25.540Z,7.40
2022-09-03T01:37:21.934Z,8.00
2022-09-03T01:40:33.872Z,8.40
2022-09-03T01:43:17.314Z,7.30
2022-09-03T01:46:00.555Z,7.90
2022-09-03T01:49:12.215Z,8.10
2022-09-03T01:51:40.886Z,8.10
2022-09-03T01:54:32.687Z,7.70
2022-09-03T01:57:34.875Z,7.30
2022-09-03T02:00:12.716Z,7.80
2022-09-03T02:02:47.204Z,8.80
2022-09-03T02:05:24.204Z,7.90
2022-09-03T02:07:55.460Z,7.80
2022-09-03T02:10:41.541Z,8.20
2022-09-03T02:13:22.559Z,7.90
2022-09-03T02:15:52.486Z,8.00
2022-09-03T02:18:28.435Z,7.70
2022-09-03T02:20:57.283Z,8.50
2022-09-03T02:23:28.456Z,7.90
2022-09-03T02:26:00.960Z,8.20
2022-09-03T02:28:30.302Z,7.60
2022-09-03T02:30:57.831Z,8.50
2022-09-03T02:33:25.499Z,7.80
2022-09-03T02:35:53.954Z,8.60
2022-09-03T02:38:26.240Z,8.10
2022-09-03T02:40:54.014Z,8.00
2022-09-03T02:43:50.980Z,8.70
2022-09-03T02:46:26.631Z,8.50
2022-09-03T02:48:55.693Z,8.20
2022-09-03T02:51:22.773Z,8.50
2022-09-03T02:53:50.921Z,8.30
2022-09-03T02:56:18.177Z,8.00
2022-09-03T02:58:45.199Z,7.80
2022-09-03T03:01:18.076Z,8.30
2022-09-03T03:03:52.001Z,8.60
2022-09-03T03:06:20.549Z,8.50
2022-09-03T03:08:50.259Z,8.40
2022-09-03T03:11:18.913Z,8.00
2022-09-03T03:13:46.404Z,8.40
2022-09-03T03:16:16.222Z,8.90
2022-09-03T03:18:47.129Z,8.90
2022-09-03T03:21:17.556Z,8.50
2022-09-03T03:23:44.963Z,8.30
2022-09-03T03:26:19.409Z,8.30
2022-09-03T03:28:50.249Z,9.00
2022-09-03T03:31:21.739Z,8.80
2022-09-03T03:33:57.667Z,8.00
2022-09-03T03:36:28.022Z,8.80
2022-09-03T03:38:57.627Z,8.30
2022-09-03T03:41:34.371Z,8.80
2022-09-03T03:44:05.553Z,7.20
2022-09-03T03:46:39.440Z,8.60
2022-09-03T03:49:08.209Z,9.00
2022-09-03T03:51:36.696Z,9.20
2022-09-03T03:54:05.746Z,9.50
2022-09-03T03:56:34.349Z,9.20
2022-09-03T03:59:01.689Z,8.30
2022-09-03T04:01:29.536Z,7.90
2022-09-03T04:03:59.523Z,7.90
2022-09-03T04:06:26.865Z,7.30
2022-09-03T04:08:54.130Z,7.80
2022-09-03T04:11:23.970Z,7.10
2022-09-03T04:13:52.666Z,7.40
2022-09-03T04:16:23.644Z,7.80
2022-09-03T04:18:53.552Z,8.00
2022-09-03T04:21:28.549Z,8.40
2022-09-03T04:23:57.588Z,8.20
2022-09-03T04:26:30.937Z,7.40
2022-09-03T04:29:03.109Z,7.70
2022-09-03T04:31:31.830Z,8.10
2022-09-03T04:33:59.285Z,8.80
2022-09-03T04:36:29.372Z,8.10
2022-09-03T04:39:01.142Z,7.10
2022-09-03T04:41:31.091Z,7.00
2022-09-03T04:43:59.198Z,7.30
2022-09-03T04:46:32.447Z,7.50
2022-09-03T04:49:00.108Z,7.50
2022-09-03T04:51:29.549Z,7.00
2022-09-03T04:54:00.396Z,7.40
2022-09-03T04:56:31.116Z,7.10
2022-09-03T04:59:08.231Z,6.30
2022-09-03T05:01:38.444Z,6.30
2022-09-03T05:04:07.469Z,5.90
2022-09-03T05:06:36.677Z,5.90
2022-09-03T05:09:05.413Z,6.10
2022-09-03T05:11:32.757Z,5.80
2022-09-03T05:14:00.521Z,5.40
2022-09-03T05:16:30.389Z,4.40
2022-09-03T05:19:00.608Z,5.10
2022-09-03T05:21:29.402Z,4.40
2022-09-03T05:23:56.903Z,4.60
2022-09-03T05:26:28.176Z,4.20
2022-09-03T05:28:58.921Z,4.40
2022-09-03T05:31:30.945Z,3.80
2022-09-03T05:36:32.102Z,3.70
2022-09-03T05:38:59.824Z,3.30
2022-09-03T05:41:29.217Z,3.50
2022-09-03T05:43:58.540Z,4.00
2022-09-03T05:46:32.037Z,3.60
2022-09-03T05:49:05.951Z,3.30
2022-09-03T05:51:35.846Z,3.30
2022-09-03T05:54:04.711Z,3.60
2022-09-03T05:56:34.934Z,3.10
2022-09-03T05:59:07.096Z,3.30
2022-09-03T06:01:51.066Z,3.00
2022-09-03T06:04:20.955Z,3.30
2022-09-03T06:06:48.573Z,3.00
2022-09-03T06:09:19.566Z,3.70
2022-09-03T06:11:52.493Z,2.80
2022-09-03T06:14:21.115Z,3.50
2022-09-03T06:16:52.207Z,3.20
2022-09-03T06:19:19.677Z,3.70
2022-09-03T06:21:47.269Z,3.40
2022-09-03T06:24:16.897Z,3.20
2022-09-03T06:26:44.540Z,2.80
2022-09-03T06:29:12.692Z,3.30
2022-09-03T06:31:40.102Z,3.00
2022-09-03T06:34:08.028Z,2.90
2022-09-03T06:36:35.565Z,3.40
2022-09-03T06:39:02.931Z,3.20
2022-09-03T06:41:33.282Z,3.40
2022-09-03T06:44:10.853Z,2.90
2022-09-03T06:46:41.709Z,2.90
2022-09-03T06:49:09.521Z,2.90
2022-09-03T06:51:38.505Z,2.70
2022-09-03T06:54:10.735Z,2.70
2022-09-03T06:56:41.119Z,3.00
2022-09-03T06:59:12.542Z,2.50
2022-09-03T07:01:43.924Z,3.50
2022-09-03T07:04:15.510Z,3.40
2022-09-03T07:06:43.738Z,3.10
2022-09-03T07:09:12.551Z,2.90
2022-09-03T07:11:46.249Z,2.50
2022-09-03T07:14:14.417Z,3.10
2022-09-03T07:16:42.574Z,3.10
2022-09-03T07:19:10.196Z,3.10
2022-09-03T07:21:37.639Z,3.10
2022-09-03T07:24:05.717Z,2.80
2022-09-03T07:26:40.237Z,2.80
2022-09-03T07:29:07.751Z,3.00
2022-09-03T07:31:40.954Z,2.90
2022-09-03T07:34:12.250Z,3.10
2022-09-03T07:36:46.523Z,3.30
2022-09-03T07:39:17.580Z,3.60
2022-09-03T07:41:45.953Z,3.30
2022-09-03T07:44:15.600Z,3.80
2022-09-03T07:46:44.763Z,3.50
2022-09-03T07:49:11.774Z,3.00
2022-09-03T07:51:39.538Z,3.40
2022-09-03T07:54:10.294Z,3.30
2022-09-03T07:56:39.849Z,3.60
2022-09-03T07:59:08.492Z,3.70
2022-09-03T08:01:38.283Z,3.60
2022-09-03T08:04:09.753Z,4.20
2022-09-03T08:06:38.750Z,3.10
2022-09-03T08:09:10.681Z,3.20
2022-09-03T08:11:40.469Z,3.20
2022-09-03T08:14:11.177Z,3.90
2022-09-03T08:16:46.738Z,3.30
2022-09-03T08:19:17.675Z,3.50
2022-09-03T08:21:45.381Z,3.40
2022-09-03T08:24:16.499Z,3.10
2022-09-03T08:26:49.079Z,3.20
2022-09-03T08:29:20.315Z,3.70
2022-09-03T08:31:47.720Z,3.70
2022-09-03T08:34:16.933Z,3.40
2022-09-03T08:36:46.415Z,3.40
2022-09-03T08:39:13.498Z,3.70
2022-09-03T08:41:46.357Z,3.90
2022-09-03T08:44:50.161Z,4.00
2022-09-03T08:47:31.879Z,3.60
2022-09-03T08:50:25.511Z,3.80
2022-09-03T08:53:06.994Z,3.60
2022-09-03T08:55:44.126Z,3.70
2022-09-03T08:58:15.089Z,4.10
2022-09-03T09:01:00.762Z,3.70
2022-09-03T09:04:10.229Z,3.60
2022-09-03T09:06:55.265Z,3.90
2022-09-03T09:09:48.345Z,3.70
2022-09-03T09:12:26.546Z,3.40
2022-09-03T09:15:18.814Z,3.40
2022-09-03T09:18:05.516Z,3.20
2022-09-03T09:20:48.721Z,3.50
2022-09-03T09:23:27.393Z,3.40
2022-09-03T09:25:58.700Z,3.80
2022-09-03T09:28:35.489Z,3.70
2022-09-03T09:31:07.182Z,3.40
2022-09-03T09:33:35.421Z,3.90
2022-09-03T09:36:14.875Z,4.80
2022-09-03T09:38:43.597Z,4.90
2022-09-03T09:41:19.171Z,5.20
2022-09-03T09:43:47.630Z,5.50
2022-09-03T09:46:25.271Z,5.60
2022-09-03T09:48:58.372Z,4.70
2022-09-03T09:51:31.679Z,3.80
2022-09-03T09:54:28.038Z,3.70
2022-09-03T09:57:05.215Z,4.40
2022-09-03T09:59:34.012Z,3.70
2022-09-03T10:02:22.037Z,3.60
2022-09-03T10:04:49.821Z,3.70
2022-09-03T10:07:30.594Z,3.70
2022-09-03T10:10:01.818Z,4.00
2022-09-03T10:12:46.699Z,4.10
2022-09-03T10:15:41.153Z,3.40
2022-09-03T10:18:46.428Z,3.60
2022-09-03T10:21:18.465Z,4.00
2022-09-03T10:26:36.739Z,3.60
2022-09-03T10:29:07.228Z,3.40
2022-09-03T10:32:02.220Z,3.80
2022-09-03T10:34:46.552Z,3.80
2022-09-03T10:37:28.503Z,4.30
2022-09-03T10:40:15.561Z,3.80
2022-09-03T10:43:29.541Z,3.70
2022-09-03T10:46:06.675Z,3.30
2022-09-03T10:49:02.091Z,3.50
2022-09-03T10:51:39.106Z,3.40
2022-09-03T10:54:43.667Z,3.50
2022-09-03T10:58:11.778Z,3.70
2022-09-03T11:00:51.909Z,3.70
2022-09-03T11:03:44.539Z,3.30
2022-09-03T11:06:21.284Z,3.40
2022-09-03T11:09:13.336Z,3.20
2022-09-03T11:12:03.878Z,3.30
2022-09-03T11:14:50.364Z,3.50
2022-09-03T11:17:32.259Z,3.70
2022-09-03T11:20:09.344Z,3.80
2022-09-03T11:22:38.436Z,3.50
2022-09-03T11:25:08.215Z,3.50
2022-09-03T11:28:11.147Z,3.40
2022-09-03T11:31:15.746Z,3.10
2022-09-03T11:33:51.061Z,3.50
2022-09-03T11:36:35.206Z,3.20
2022-09-03T11:39:32.305Z,4.00
2022-09-03T11:42:10.023Z,3.40
2022-09-03T11:44:51.028Z,3.50
2022-09-03T11:47:36.682Z,3.90
2022-09-03T11:50:33.301Z,3.50
2022-09-03T11:53:27.589Z,3.60
2022-09-03T11:56:17.612Z,4.00
2022-09-03T11:58:47.365Z,3.90
2022-09-03T12:01:18.258Z,3.40
2022-09-03T12:03:56.459Z,3.90
2022-09-03T12:07:04.957Z,3.50
2022-09-03T12:10:28.734Z,4.00
2022-09-03T12:13:50.811Z,3.70
2022-09-03T12:16:41.439Z,3.40
2022-09-03T12:19:37.528Z,4.40
2022-09-03T12:22:05.144Z,3.50
2022-09-03T12:24:37.783Z,3.90
2022-09-03T12:27:05.809Z,3.40
2022-09-03T12:29:32.778Z,3.50
2022-09-03T12:32:13.052Z,3.50
2022-09-03T12:34:40.148Z,3.20
2022-09-03T12:40:18.269Z,3.00
2022-09-03T12:42:45.424Z,3.00
2022-09-03T12:45:15.855Z,2.70
2022-09-03T12:47:43.484Z,2.90
2022-09-03T12:50:19.753Z,3.10
2022-09-03T12:53:01.274Z,2.70
2022-09-03T12:55:47.549Z,2.70
2022-09-03T12:58:26.537Z,3.10
2022-09-03T13:01:32.695Z,3.20
2022-09-03T13:04:11.682Z,3.00
2022-09-03T13:06:53.448Z,5.30
2022-09-03T13:11:51.986Z,5.90
2022-09-03T13:14:19.694Z,3.40
2022-09-03T13:16:53.851Z,3.80
2022-09-03T13:19:43.712Z,10.00
2022-09-03T13:22:58.611Z,8.30
2022-09-03T13:25:46.303Z,4.40
2022-09-03T13:28:39.473Z,5.20
2022-09-03T13:31:31.462Z,3.40
2022-09-03T13:36:58.346Z,3.10
2022-09-03T13:39:29.592Z,3.20
2022-09-03T13:42:10.470Z,3.40
2022-09-03T13:44:46.385Z,14.80
2022-09-03T13:48:02.953Z,3.40
2022-09-03T13:50:57.712Z,3.50
2022-09-03T13:54:04.908Z,3.20
2022-09-03T13:56:54.112Z,3.20
2022-09-03T13:59:40.902Z,3.30
2022-09-03T14:02:20.407Z,3.20
2022-09-03T14:04:57.418Z,24.30
2022-09-03T14:07:53.815Z,3.80
2022-09-03T14:10:27.820Z,4.10
2022-09-03T14:13:20.039Z,3.00
2022-09-03T14:19:03.143Z,3.10
2022-09-03T14:21:34.820Z,3.40
2022-09-03T14:24:22.173Z,3.10
2022-09-03T14:26:54.335Z,2.90
2022-09-03T14:29:32.045Z,3.20
2022-09-03T14:32:51.309Z,3.50
2022-09-03T14:36:05.603Z,3.20
2022-09-03T14:38:48.648Z,5.70
2022-09-03T14:41:59.697Z,3.90
2022-09-03T14:44:57.235Z,3.70
2022-09-03T14:48:06.353Z,3.40
2022-09-03T14:50:55.115Z,3.50
2022-09-03T14:53:24.937Z,3.20
2022-09-03T14:56:22.064Z,2.90
2022-09-03T14:59:19.203Z,3.10
2022-09-03T15:02:15.532Z,2.90
2022-09-03T15:05:12.094Z,2.70
2022-09-03T15:07:55.296Z,2.70
2022-09-03T15:10:37.070Z,3.30
2022-09-03T15:13:09.994Z,3.80
2022-09-03T15:15:42.875Z,3.30
2022-09-03T15:18:21.782Z,6.10
2022-09-03T15:20:51.766Z,5.60
2022-09-03T15:24:01.419Z,4.00
2022-09-03T15:26:56.063Z,5.40
2022-09-03T15:30:00.307Z,3.90
2022-09-03T15:32:39.656Z,3.40
2022-09-03T15:35:30.195Z,3.50
2022-09-03T15:38:20.253Z,3.70
2022-09-03T15:40:55.278Z,2.90
2022-09-03T15:43:30.281Z,3.50
2022-09-03T15:46:13.075Z,3.40
2022-09-03T15:49:04.983Z,3.10
2022-09-03T15:52:33.298Z,3.60
2022-09-03T15:55:34.625Z,3.60
2022-09-03T15:58:29.252Z,3.30
2022-09-03T16:01:03.051Z,3.70
2022-09-03T16:04:16.770Z,5.90
2022-09-03T16:07:15.627Z,3.70
2022-09-03T16:09:44.832Z,3.90
2022-09-03T16:12:47.712Z,3.30
2022-09-03T16:15:23.031Z,3.10
2022-09-03T16:18:20.008Z,3.20
2022-09-03T16:21:36.063Z,3.60
2022-09-03T16:24:46.084Z,4.00
2022-09-03T16:27:42.173Z,3.40
2022-09-03T16:30:33.465Z,3.40
2022-09-03T16:33:21.059Z,3.60
2022-09-03T16:36:30.305Z,3.70
2022-09-03T16:39:25.513Z,3.50
2022-09-03T16:42:12.918Z,3.50
2022-09-03T16:45:35.926Z,3.40
2022-09-03T16:48:12.291Z,2.90
2022-09-03T16:51:19.753Z,3.40
2022-09-03T16:54:08.771Z,3.20
2022-09-03T16:56:44.189Z,3.60
2022-09-03T16:59:20.198Z,3.20
2022-09-03T17:01:59.704Z,3.90
2022-09-03T17:04:56.183Z,3.90
2022-09-03T17:07:44.135Z,4.00
2022-09-03T17:10:16.951Z,4.20
2022-09-03T17:13:02.529Z,8.70
2022-09-03T17:15:34.382Z,8.30
2022-09-03T17:18:23.361Z,4.50
2022-09-03T17:21:29.915Z,5.80
2022-09-03T17:24:10.762Z,4.10
2022-09-03T17:27:31.729Z,4.00
2022-09-03T17:30:19.271Z,4.00
2022-09-03T17:33:09.403Z,4.10
2022-09-03T17:36:18.173Z,4.30
2022-09-03T17:39:09.574Z,4.70
2022-09-03T17:41:40.144Z,4.60
2022-09-03T17:44:55.155Z,4.10
2022-09-03T17:47:55.131Z,4.10
2022-09-03T17:50:32.156Z,3.80
2022-09-03T17:53:20.552Z,3.80
2022-09-03T17:56:01.067Z,3.80
2022-09-03T17:58:40.830Z,4.30
2022-09-03T18:01:10.565Z,4.40
2022-09-03T18:03:57.060Z,4.30
2022-09-03T18:06:48.443Z,4.00
2022-09-03T18:09:15.395Z,4.90
2022-09-03T18:12:26.364Z,4.90
2022-09-03T18:15:08.081Z,6.40
2022-09-03T18:17:41.230Z,6.20
2022-09-03T18:20:30.559Z,4.90
2022-09-03T18:23:41.942Z,3.90
2022-09-03T18:26:47.459Z,4.20
2022-09-03T18:29:54.642Z,5.80
2022-09-03T18:32:40.095Z,5.10
2022-09-03T18:35:27.543Z,12.50
2022-09-03T18:38:14.149Z,5.20
2022-09-03T18:41:17.141Z,6.00
2022-09-03T18:44:28.203Z,5.50
2022-09-03T18:48:12.732Z,5.70
2022-09-03T18:51:22.568Z,6.00
2022-09-03T18:54:50.543Z,6.70
2022-09-03T18:57:53.623Z,5.90
2022-09-03T19:00:39.563Z,6.20
2022-09-03T19:03:54.732Z,4.70
2022-09-03T19:07:13.485Z,4.60
2022-09-03T19:10:32.212Z,8.00
2022-09-03T19:13:45.520Z,8.50
2022-09-03T19:16:43.859Z,5.60
2022-09-03T19:20:05.893Z,4.90
2022-09-03T19:23:00.003Z,5.10
2022-09-03T19:25:47.846Z,5.40
2022-09-03T19:28:47.199Z,5.00
2022-09-03T19:32:18.992Z,5.00
2022-09-03T19:35:31.486Z,4.60
2022-09-03T19:38:40.800Z,5.70
2022-09-03T19:41:38.271Z,5.60
2022-09-03T19:45:00.894Z,5.60
2022-09-03T19:48:40.349Z,5.00
2022-09-03T19:51:50.213Z,4.60
2022-09-03T19:54:41.051Z,4.90
2022-09-03T19:57:29.858Z,5.20
2022-09-03T20:00:16.679Z,4.80
2022-09-03T20:03:08.262Z,5.10
2022-09-03T20:05:55.506Z,4.50
2022-09-03T20:08:43.689Z,5.00
2022-09-03T20:11:18.768Z,4.60
2022-09-03T20:14:04.539Z,4.80
2022-09-03T20:16:54.827Z,4.70
2022-09-03T20:19:52.378Z,4.80
2022-09-03T20:22:38.008Z,4.70
2022-09-03T20:25:16.883Z,4.30
2022-09-03T20:28:13.146Z,5.40
2022-09-03T20:30:48.107Z,5.80
2022-09-03T20:33:37.978Z,4.80
2022-09-03T20:36:19.155Z,4.80
2022-09-03T20:39:34.456Z,5.40
2022-09-03T20:42:35.565Z,4.80
2022-09-03T20:45:31.708Z,4.60
2022-09-03T20:48:01.574Z,4.80
2022-09-03T20:50:47.285Z,5.10
2022-09-03T20:53:43.371Z,4.90
2022-09-03T20:56:35.142Z,6.30
2022-09-03T20:59:35.435Z,5.90
2022-09-03T21:02:25.613Z,6.00
2022-09-03T21:05:19.593Z,7.50
2022-09-03T21:08:20.075Z,7.20
2022-09-03T21:10:55.991Z,6.80
2022-09-03T21:13:25.786Z,6.80
2022-09-03T21:16:45.778Z,6.30
2022-09-03T21:19:44.064Z,5.20
2022-09-03T21:22:23.047Z,5.40
2022-09-03T21:25:05.666Z,5.40
2022-09-03T21:27:51.946Z,5.00
2022-09-03T21:30:22.231Z,5.50
2022-09-03T21:33:02.469Z,4.90
2022-09-03T21:35:49.283Z,5.20
2022-09-03T21:38:37.650Z,5.00
2022-09-03T21:41:25.106Z,5.40
2022-09-03T21:44:00.891Z,5.30
2022-09-03T21:46:57.600Z,5.50
2022-09-03T21:49:44.561Z,5.20
2022-09-03T21:52:37.047Z,5.20
2022-09-03T21:58:45.256Z,5.60
2022-09-03T22:01:38.532Z,5.80
2022-09-03T22:04:06.248Z,5.10
2022-09-03T22:07:06.262Z,5.20
2022-09-03T22:10:31.955Z,5.60
2022-09-03T22:13:28.354Z,4.40
2022-09-03T22:16:38.607Z,4.90
2022-09-03T22:19:08.867Z,4.80
2022-09-03T22:22:01.444Z,4.30
2022-09-03T22:24:58.211Z,4.70
2022-09-03T22:28:00.619Z,4.80
2022-09-03T22:30:49.693Z,4.70
2022-09-03T22:33:49.073Z,4.70
2022-09-03T22:36:28.062Z,5.70
2022-09-03T22:39:31.676Z,4.50
2022-09-03T22:42:55.822Z,4.60
2022-09-03T22:45:55.640Z,5.10
2022-09-03T22:48:50.361Z,6.10
2022-09-03T22:51:21.639Z,4.90
2022-09-03T22:54:24.462Z,5.00
2022-09-03T22:56:54.258Z,4.50
2022-09-03T22:59:31.505Z,4.80
2022-09-03T23:02:22.590Z,5.50
2022-09-03T23:05:20.553Z,4.80
2022-09-03T23:08:21.493Z,4.50
2022-09-03T23:11:10.917Z,4.70
2022-09-03T23:13:49.986Z,4.80
2022-09-03T23:16:42.170Z,5.50
2022-09-03T23:19:35.151Z,5.70
2022-09-03T23:22:15.760Z,5.80
2022-09-03T23:24:53.429Z,4.80
2022-09-03T23:27:27.063Z,5.00
2022-09-03T23:29:59.711Z,5.50
2022-09-03T23:32:33.251Z,5.40
2022-09-03T23:35:17.323Z,5.80
2022-09-03T23:37:56.553Z,5.70
2022-09-03T23:40:30.987Z,5.70
2022-09-03T23:43:28.893Z,5.50
2022-09-03T23:46:16.086Z,5.80
2022-09-03T23:49:29.318Z,5.90
2022-09-03T23:52:36.662Z,5.60
2022-09-03T23:55:18.484Z,5.60
2022-09-03T23:58:40.466Z,5.30
